Latest Weather Observations for Cabramurra

IDN60901

Issued at 9:31 pm EDT Tuesday 23 October 2018 (issued every 10 minutes, with the page automatically refreshed every 10 minutes)

About weather observations | Map of Canberra area stations | Latest observations for Canberra area | Other Formats
Station Details ID: 072161 Name: CABRAMURRA SMHEA AWS Lat: -35.94 Lon: 148.38 Height: 1482.4 m
Data from the previous 72 hours. | See also: Recent months at Cabramurra
Date/Time
EDT
Temp
°C
App
Temp
°C
Dew
Point
°C
Rel
Hum
%
Delta-T
°C
Wind Press
QNH
hPa
Press
MSL
hPa
Rain since
9am
mm
Dir  Spd
km/h
Gust
km/h
Spd
kts
Gust
kts
23/09:30pm 12.2 6.3 -0.6 41 5.7 W 20 32 11 17 - - 0.0
23/09:00pm 12.9 6.9 -1.4 37 6.3 WNW 20 32 11 17 - - 0.0
23/08:30pm 13.5 6.7 -2.0 34 6.8 WNW 24 39 13 21 - - 0.0
23/08:00pm 13.9 7.0 -2.5 32 7.1 WNW 24 35 13 19 - - 0.0
23/07:30pm 14.9 7.2 -3.0 29 7.7 WNW 28 44 15 24 - - 0.0
23/07:00pm 16.0 7.5 -3.0 27 8.3 WNW 32 48 17 26 - - 0.0
23/06:30pm 16.6 8.5 -3.5 25 8.7 WNW 30 59 16 32 - - 0.0
23/06:00pm 17.5 9.8 -3.3 24 9.1 WNW 28 48 15 26 - - 0.0
23/05:31pm 18.2 10.5 -3.2 23 9.5 NW 28 46 15 25 - - 0.0
23/05:30pm 18.0 10.7 -2.8 24 9.3 NW 26 41 14 22 - - 0.0
23/05:09pm 18.3 10.6 -3.2 23 9.5 WNW 28 48 15 26 - - 0.0
23/05:00pm 18.8 12.3 -2.2 24 9.5 NW 22 41 12 22 - - 0.0
23/04:33pm 18.7 11.9 -1.7 25 9.4 WNW 24 46 13 25 - - 0.0
23/04:30pm 18.8 12.8 -1.6 25 9.4 NW 20 35 11 19 - - 0.0
23/04:07pm 18.3 11.0 0.0 29 8.7 WNW 28 46 15 25 - - 0.0
23/04:00pm 17.9 10.0 -1.3 27 8.8 NW 30 46 16 25 - - 0.0
23/03:56pm 18.1 10.7 -0.7 28 8.8 NW 28 46 15 25 - - 0.0
23/03:30pm 17.6 11.4 -0.2 30 8.3 WNW 22 39 12 21 - - 0.0
23/03:00pm 18.0 11.3 -0.8 28 8.7 W 24 44 13 24 - - 0.0
23/02:30pm 17.4 9.9 -1.3 28 8.6 WNW 28 50 15 27 - - 0.0
23/02:15pm 17.2 9.6 -1.9 27 8.6 W 28 48 15 26 - - 0.0
23/02:12pm 17.0 9.0 -2.1 27 8.6 WNW 30 50 16 27 - - 0.0
23/02:00pm 16.7 7.2 -3.4 25 8.8 WNW 37 59 20 32 - - 0.0
23/01:34pm 16.7 9.0 -2.9 26 8.6 WNW 28 56 15 30 - - 0.0
23/01:30pm 17.2 10.2 -0.5 30 8.2 WNW 26 48 14 26 - - 0.0
23/01:13pm 16.6 8.8 -1.0 30 8.0 NW 30 48 16 26 - - 0.0
23/01:00pm 16.2 8.0 -0.9 31 7.8 NW 32 48 17 26 - - 0.0
23/12:52pm 16.0 8.6 -0.7 32 7.6 NW 28 48 15 26 - - 0.0
23/12:30pm 15.7 9.3 1.1 37 6.9 NW 24 37 13 20 - - 0.0
23/12:00pm 14.4 8.4 1.3 41 6.2 NNW 22 30 12 16 - - 0.0
23/11:30am 14.8 8.5 1.3 40 6.4 NNW 24 32 13 17 - - 0.0
23/11:00am 14.4 8.7 0.6 39 6.4 NNW 20 30 11 16 - - 0.0
23/10:30am 14.1 8.6 0.4 39 6.3 NNW 19 26 10 14 - - 0.0
23/10:00am 13.9 8.1 -1.7 34 6.9 NNW 19 30 10 16 - - 0.0
23/09:30am 14.0 8.1 -2.4 32 7.1 NW 19 26 10 14 - - 0.0
23/09:00am 12.7 6.5 -3.5 32 6.8 NNW 20 26 11 14 - - 0.0
23/08:30am 12.5 6.2 -4.1 31 6.8 NNW 20 30 11 16 - - 0.0
23/08:00am 12.0 6.2 -4.2 32 6.6 NNW 17 24 9 13 - - 0.0
23/07:30am 11.5 6.1 -4.2 33 6.4 NNW 15 20 8 11 - - 0.0
23/07:00am 11.0 5.6 -4.2 34 6.2 NNW 15 20 8 11 - - 0.0
23/06:30am 11.1 5.7 -4.5 33 6.3 NW 15 19 8 10 - - 0.0
23/06:00am 11.4 5.6 -4.7 32 6.5 NW 17 24 9 13 - - 0.0
23/05:30am 11.4 5.6 -4.7 32 6.5 NNW 17 24 9 13 - - 0.0
23/05:00am 10.9 5.9 -3.9 35 6.0 NNW 13 19 7 10 - - 0.0
23/04:30am 10.9 5.6 -3.9 35 6.0 NNW 15 17 8 9 - - 0.0
23/04:00am 10.6 5.7 -3.8 36 5.9 NNW 13 17 7 9 - - 0.0
23/03:30am 10.7 6.5 -3.7 36 5.9 N 9 13 5 7 - - 0.0
23/03:00am 10.8 5.9 -3.3 37 5.8 NNW 13 17 7 9 - - 0.0
23/02:30am 10.7 5.8 -3.4 37 5.8 NNW 13 15 7 8 - - 0.0
23/02:00am 10.8 5.9 -3.7 36 5.9 NNW 13 17 7 9 - - 0.0
23/01:30am 11.0 6.1 -3.5 36 6.0 NNW 13 17 7 9 - - 0.0
23/01:00am 11.0 6.5 -3.1 37 5.9 N 11 13 6 7 - - 0.0
23/12:30am 11.2 6.7 -2.9 37 5.9 N 11 15 6 8 - - 0.0
23/12:00am 10.9 6.9 -2.1 40 5.5 N 9 13 5 7 - - 0.0
 
Date/Time
EDT
Temp
°C
App
Temp
°C
Dew
Point
°C
Rel
Hum
%
Delta-T
°C
Wind Press
QNH
hPa
Press
MSL
hPa
Rain since
9am
mm
Dir  Spd
km/h
Gust
km/h
Spd
kts
Gust
kts
22/11:30pm 10.8 7.0 -0.9 44 5.1 N 9 13 5 7 - - 0.0
22/11:00pm 10.3 7.3 1.7 55 4.0 NNW 7 9 4 5 - - 0.0
22/10:30pm 10.3 7.3 2.2 57 3.8 WNW 7 11 4 6 - - 0.0
22/10:00pm 9.7 6.4 2.3 60 3.4 WNW 9 11 5 6 - - 0.0
22/09:30pm 10.1 6.8 2.2 58 3.7 W 9 13 5 7 - - 0.0
22/09:00pm 10.7 7.0 2.3 56 3.9 W 11 17 6 9 - - 0.0
22/08:30pm 10.7 7.7 2.3 56 3.9 W 7 15 4 8 - - 0.0
22/08:00pm 11.0 8.1 2.6 56 4.0 W 7 13 4 7 - - 0.0
22/07:30pm 11.8 8.9 2.5 53 4.4 W 7 13 4 7 - - 0.0
22/07:00pm 13.4 9.3 2.3 47 5.3 W 13 17 7 9 - - 0.0
22/06:30pm 14.7 10.5 1.6 41 6.2 W 13 20 7 11 - - 0.0
22/06:00pm 15.5 11.4 2.0 40 6.5 W 13 19 7 10 - - 0.0
22/05:30pm 15.9 12.3 2.7 41 6.5 WNW 11 20 6 11 - - 0.0
22/05:00pm 15.2 10.0 0.2 36 6.9 W 17 22 9 12 - - 0.0
22/04:30pm 15.0 10.6 0.1 36 6.9 WNW 13 20 7 11 - - 0.0
22/04:00pm 15.7 10.8 -0.5 33 7.4 WNW 15 20 8 11 - - 0.0
22/03:30pm 15.4 10.5 -0.4 34 7.2 W 15 20 8 11 - - 0.0
22/03:00pm 15.1 9.4 -1.0 33 7.3 WNW 19 26 10 14 - - 0.0
22/02:30pm 15.0 9.4 -0.3 35 7.0 W 19 30 10 16 - - 0.0
22/02:00pm 14.4 9.2 0.3 38 6.5 W 17 24 9 13 - - 0.0
22/01:30pm 14.4 9.9 2.3 44 5.8 W 15 24 8 13 - - 0.0
22/01:00pm 13.7 8.5 0.0 39 6.2 W 17 30 9 16 - - 0.0
22/12:30pm 13.1 8.4 0.8 43 5.7 W 15 22 8 12 - - 0.0
22/12:00pm 12.6 8.0 1.3 46 5.2 W 15 20 8 11 - - 0.0
22/11:30am 12.7 8.7 2.8 51 4.8 WNW 13 19 7 10 - - 0.0
22/11:00am 11.6 7.1 2.1 52 4.5 WNW 15 20 8 11 - - 0.0
22/10:30am 11.0 7.0 3.1 58 3.8 WNW 13 17 7 9 - - 0.0
22/10:00am 10.1 6.0 2.0 57 3.7 WNW 13 20 7 11 - - 0.0
22/09:30am 9.4 5.3 2.0 60 3.4 NW 13 17 7 9 - - 0.0
22/09:00am 8.8 4.5 1.0 58 3.5 NW 13 17 7 9 - - 0.0
22/08:30am 8.4 4.1 0.9 59 3.3 NW 13 15 7 8 - - 0.0
22/08:00am 7.9 3.4 -0.1 57 3.5 WNW 13 20 7 11 - - 0.0
22/07:30am 7.4 2.9 -0.5 57 3.4 NW 13 15 7 8 - - 0.0
22/07:00am 7.0 2.4 -0.7 58 3.2 NW 13 17 7 9 - - 0.0
22/06:30am 6.8 1.9 -0.2 61 3.0 NW 15 20 8 11 - - 0.0
22/06:00am 6.7 2.5 1.4 69 2.3 NNW 13 19 7 10 - - 0.0
22/05:30am 6.6 2.8 1.9 72 2.1 N 11 13 6 7 - - 0.0
22/05:00am 6.7 3.0 2.2 73 2.0 N 11 15 6 8 - - 0.0
22/04:30am 6.6 3.2 1.9 72 2.1 N 9 11 5 6 - - 0.0
22/04:00am 6.6 3.1 1.1 68 2.4 N 9 13 5 7 - - 0.0
22/03:30am 6.9 3.1 1.6 69 2.4 NNW 11 15 6 8 - - 0.0
22/03:00am 7.1 3.2 3.2 76 1.8 N 13 17 7 9 - - 0.0
22/02:30am 7.4 3.5 3.3 75 1.9 N 13 15 7 8 - - 0.0
22/02:00am 7.4 3.9 3.3 75 1.9 N 11 15 6 8 - - 0.0
22/01:30am 7.6 4.1 3.5 75 1.9 NNE 11 13 6 7 - - 0.0
22/01:00am 6.8 3.2 3.1 77 1.7 ENE 11 13 6 7 - - 0.0
22/12:30am 6.7 2.7 3.0 77 1.7 E 13 17 7 9 - - 0.0
22/12:00am 6.6 1.5 3.0 78 1.7 E 19 22 10 12 - - 0.0
 
Date/Time
EDT
Temp
°C
App
Temp
°C
Dew
Point
°C
Rel
Hum
%
Delta-T
°C
Wind Press
QNH
hPa
Press
MSL
hPa
Rain since
9am
mm
Dir  Spd
km/h
Gust
km/h
Spd
kts
Gust
kts
21/11:30pm 6.9 1.6 3.2 77 1.7 ESE 20 26 11 14 - - 0.0
21/11:00pm 6.7 0.3 3.0 77 1.7 ESE 26 32 14 17 - - 0.0
21/10:30pm 7.5 1.1 3.2 74 2.0 ESE 26 33 14 18 - - 0.0
21/10:00pm 8.0 2.4 3.5 73 2.1 ESE 22 30 12 16 - - 0.0
21/09:30pm 8.5 3.6 2.3 65 2.8 ESE 17 22 9 12 - - 0.0
21/09:00pm 8.1 5.2 -1.1 52 3.9 ESE 4 15 2 8 - - 0.0
21/08:30pm 8.4 6.1 -2.2 47 4.4 CALM 0 0 0 0 - - 0.0
21/08:00pm 8.2 5.8 -3.0 45 4.5 CALM 0 0 0 0 - - 0.0
21/07:30pm 8.6 5.8 -3.6 42 4.9 WNW 2 6 1 3 - - 0.0
21/07:00pm 9.8 5.8 -2.2 43 5.0 WNW 9 15 5 8 - - 0.0
21/06:30pm 10.7 6.6 -0.4 46 4.9 WNW 11 17 6 9 - - 0.0
21/06:00pm 11.3 6.7 -0.8 43 5.3 WNW 13 17 7 9 - - 0.0
21/05:30pm 11.2 5.6 -2.6 38 5.8 WNW 17 20 9 11 - - 0.0
21/05:00pm 11.8 7.2 -1.0 41 5.6 W 13 20 7 11 - - 0.0
21/04:30pm 11.6 7.2 0.1 45 5.2 W 13 19 7 10 - - 0.0
21/04:00pm 11.8 7.0 0.3 45 5.2 W 15 20 8 11 - - 0.0
21/03:30pm 11.9 7.1 0.1 44 5.3 W 15 22 8 12 - - 0.0
21/03:00pm 11.7 7.1 1.4 49 4.8 WSW 15 20 8 11 - - 0.0
21/02:30pm 11.2 7.1 -0.3 45 5.1 WNW 11 20 6 11 - - 0.0
21/02:00pm 10.6 6.4 1.7 54 4.1 WNW 13 19 7 10 - - 0.0
21/01:30pm 10.5 6.8 2.6 58 3.7 WNW 11 17 6 9 - - 0.0
21/01:00pm 10.2 6.7 3.3 62 3.3 W 11 19 6 10 - - 0.0
21/12:30pm 9.5 5.2 3.0 64 3.1 W 15 20 8 11 - - 0.0
21/12:00pm 8.7 4.3 0.4 56 3.7 WNW 13 20 7 11 - - 0.0
21/11:30am 8.2 4.1 0.0 56 3.6 WNW 11 20 6 11 - - 0.0
21/11:00am 8.1 4.1 0.8 60 3.2 WNW 11 17 6 9 - - 0.0
21/10:30am 7.7 4.0 0.0 58 3.3 WNW 9 15 5 8 - - 0.0
21/10:00am 7.3 3.8 -1.1 55 3.5 WNW 7 11 4 6 - - 0.0
21/09:30am 6.8 3.2 -1.8 54 3.5 WNW 7 9 4 5 - - 0.0
21/09:00am 6.7 4.0 -2.7 51 3.8 WSW 2 7 1 4 - - 1.2
21/08:30am 6.3 3.3 -1.8 56 3.3 S 4 9 2 5 - - 1.2
21/08:00am 5.3 1.7 -1.8 60 2.9 S 7 9 4 5 - - 1.2
21/07:30am 4.9 0.8 -3.1 56 3.1 S 9 11 5 6 - - 1.2
21/07:00am 4.5 0.3 -3.7 55 3.1 S 9 11 5 6 - - 1.2
21/06:30am 4.1 0.2 -4.4 54 3.2 SSW 7 9 4 5 - - 1.2
21/06:00am 4.0 -0.2 -3.7 57 2.9 SSE 9 11 5 6 - - 1.2
21/05:30am 4.1 0.4 -3.2 59 2.8 SSE 7 9 4 5 - - 1.2
21/05:00am 2.8 0.6 -1.2 75 1.6 CALM 0 0 0 0 - - 1.2
21/04:30am 3.2 -0.2 -0.6 76 1.5 SSE 7 9 4 5 - - 1.2
21/04:00am 2.6 -0.6 0.7 87 0.8 ESE 7 11 4 6 - - 1.2
21/03:30am 2.4 -0.9 2.3 99 0.0 SE 9 11 5 6 - - 1.2
21/03:00am 2.0 -1.8 1.9 99 0.0 SSE 11 13 6 7 - - 1.2
21/02:30am 1.7 -1.7 1.6 99 0.0 S 9 11 5 6 - - 1.2
21/02:00am 1.8 -1.6 1.7 99 0.0 S 9 11 5 6 - - 1.2
21/01:30am 2.1 -0.9 2.0 99 0.0 S 7 11 4 6 - - 1.2
21/01:00am 2.5 -0.4 2.4 99 0.0 S 7 9 4 5 - - 1.2
21/12:30am 2.4 0.4 2.3 99 0.0 W 2 7 1 4 - - 1.2
21/12:00am 2.8 -0.5 2.7 99 0.0 WSW 9 13 5 7 - - 1.2
 
Date/Time
EDT
Temp
°C
App
Temp
°C
Dew
Point
°C
Rel
Hum
%
Delta-T
°C
Wind Press
QNH
hPa
Press
MSL
hPa
Rain since
9am
mm
Dir  Spd
km/h
Gust
km/h
Spd
kts
Gust
kts
20/11:30pm 3.2 0.6 3.1 99 0.0 SSW 6 7 3 4 - - 1.2
20/11:00pm 3.3 0.7 3.2 99 0.0 W 6 9 3 5 - - 1.2
20/10:30pm 3.5 0.7 3.4 99 0.0 WNW 7 9 4 5 - - 1.2
20/10:00pm 3.3 1.8 3.2 99 0.0 CALM 0 0 0 0 - - 1.2

Latest Capital City Observations: Canberra | Sydney | Melbourne | Brisbane | Adelaide | Perth | Hobart | Darwin

Other Formats:

Comma delimited format used in spreadsheet applications
http://www.bom.gov.au/fwo/IDN60903/IDN60903.95916.axf

JavaScript Object Notation format (JSON) in row-major order
http://www.bom.gov.au/fwo/IDN60903/IDN60903.95916.json